Time;durP1;ratioP1;P1;durP2;ratioP2;P2;SDS_P1;SDS_P2;PMS_P1;PMS_P2;Temp;Humidity;BMP_temperature;BMP_pressure;BME280_temperature;BME280_humidity;BME280_pressure;Samples;Min_cycle;Max_cycle;Signal;HPM_P1;HPM_P2
2021/04/12 00:01:25;;;;;;;4.25;3.95;;;4.70;1.00;;;;;;4994951;28;20018;-74
2021/04/12 00:04:18;;;;;;;4.13;3.72;;;4.70;1.00;;;;;;4995557;28;20049;-76
2021/04/12 00:06:46;;;;;;;3.72;3.42;;;4.70;1.00;;;;;;4990943;28;20045;-77
2021/04/12 00:09:57;;;;;;;4.05;3.75;;;4.60;1.00;;;;;;4991667;28;20045;-76
2021/04/12 00:12:31;;;;;;;3.80;3.50;;;4.60;1.00;;;;;;4946332;29;20019;-74
2021/04/12 00:15:05;;;;;;;4.20;3.90;;;4.60;1.00;;;;;;4987653;28;20069;-73
2021/04/12 00:17:40;;;;;;;3.90;3.60;;;4.60;1.00;;;;;;4992725;28;20030;-72
2021/04/12 00:20:16;;;;;;;3.60;3.30;;;4.60;1.00;;;;;;4994963;28;20033;-73
2021/04/12 00:22:51;;;;;;;3.58;3.30;;;4.60;1.00;;;;;;4991386;28;20030;-73
2021/04/12 00:25:32;;;;;;;4.03;3.72;;;4.50;1.00;;;;;;4987632;28;20026;-73
2021/04/12 00:28:09;;;;;;;3.78;3.47;;;4.30;1.00;;;;;;4991608;28;20437;-74
2021/04/12 00:30:44;;;;;;;4.32;4.03;;;4.20;1.00;;;;;;5007571;28;20023;-71
2021/04/12 00:33:34;;;;;;;3.70;3.40;;;4.10;1.00;;;;;;4971699;28;20062;-73
2021/04/12 00:36:35;;;;;;;4.90;4.50;;;4.20;1.00;;;;;;4972463;28;20043;-73
2021/04/12 00:39:35;;;;;;;4.45;4.13;;;4.10;1.00;;;;;;4973819;28;20050;-73
2021/04/12 00:42:26;;;;;;;3.95;3.65;;;4.20;1.00;;;;;;4970699;28;20034;-73
2021/04/12 00:45:20;;;;;;;4.03;3.72;;;4.10;1.00;;;;;;4973431;28;20026;-74
2021/04/12 00:47:46;;;;;;;4.65;4.25;;;4.10;1.00;;;;;;4975119;28;20027;-72
2021/04/12 00:50:36;;;;;;;4.50;4.10;;;4.00;1.00;;;;;;4978570;28;20030;-73
2021/04/12 00:53:38;;;;;;;4.78;4.47;;;4.00;1.00;;;;;;4975296;28;20459;-73
2021/04/12 00:56:19;;;;;;;5.03;4.18;;;4.00;1.00;;;;;;4982498;28;20049;-73
2021/04/12 00:58:58;;;;;;;4.78;4.45;;;4.00;1.00;;;;;;4971502;28;20041;-73
2021/04/12 01:01:34;;;;;;;3.33;3.10;;;4.00;1.00;;;;;;4973654;28;20395;-73
2021/04/12 01:04:25;;;;;;;4.63;4.25;;;4.00;1.00;;;;;;4971639;28;20031;-73
2021/04/12 01:07:27;;;;;;;3.67;3.38;;;3.90;1.00;;;;;;4969801;28;20077;-73
2021/04/12 01:10:05;;;;;;;6.07;5.00;;;3.80;1.00;;;;;;4973176;28;20041;-73
2021/04/12 01:13:03;;;;;;;5.10;4.70;;;3.80;1.00;;;;;;4972754;28;20031;-73
2021/04/12 01:16:13;;;;;;;5.95;5.00;;;3.80;1.00;;;;;;4972268;28;20513;-73
2021/04/12 01:19:16;;;;;;;5.13;4.63;;;3.90;1.00;;;;;;4963304;28;20039;-73
2021/04/12 01:21:45;;;;;;;5.05;4.65;;;3.80;1.00;;;;;;4972257;28;20027;-72
2021/04/12 01:24:22;;;;;;;5.40;4.30;;;3.70;1.00;;;;;;4966554;28;20098;-72
2021/04/12 01:27:27;;;;;;;5.60;5.10;;;3.70;1.00;;;;;;4970432;28;20422;-73
2021/04/12 01:30:18;;;;;;;5.03;4.53;;;3.70;1.00;;;;;;4969501;28;20506;-73
2021/04/12 01:32:52;;;;;;;7.00;5.00;;;3.70;1.00;;;;;;4973444;28;20031;-73
2021/04/12 01:35:38;;;;;;;5.82;5.22;;;3.70;1.00;;;;;;4973250;28;20034;-72
2021/04/12 01:38:26;;;;;;;6.38;5.80;;;3.60;1.00;;;;;;4965489;28;20027;-74
2021/04/12 01:41:15;;;;;;;5.25;4.75;;;3.60;1.00;;;;;;4976055;28;20125;-73
2021/04/12 01:43:59;;;;;;;6.53;6.03;;;3.50;1.00;;;;;;4975063;28;20047;-72
2021/04/12 01:46:36;;;;;;;6.82;6.22;;;3.50;1.00;;;;;;4973752;28;20055;-74
2021/04/12 01:49:06;;;;;;;5.53;5.03;;;3.50;1.00;;;;;;4967499;28;20023;-72
2021/04/12 01:51:53;;;;;;;6.25;5.65;;;3.50;1.00;;;;;;4967799;28;20019;-73
2021/04/12 01:54:49;;;;;;;6.55;5.93;;;3.50;1.00;;;;;;4974560;28;20491;-73
2021/04/12 01:57:37;;;;;;;6.65;6.05;;;3.50;1.00;;;;;;4973651;28;20061;-73
2021/04/12 02:00:24;;;;;;;5.93;5.22;;;3.50;1.00;;;;;;4971421;28;20034;-72
2021/04/12 02:03:12;;;;;;;6.72;5.90;;;3.50;1.00;;;;;;4972412;28;20027;-73
2021/04/12 02:06:04;;;;;;;9.38;6.78;;;3.50;1.00;;;;;;4965956;28;20030;-73
2021/04/12 02:08:44;;;;;;;;;;;3.60;1.00;;;;;;4973293;28;20058;-73
2021/04/12 02:11:32;;;;;;;6.23;5.73;;;3.50;1.00;;;;;;4968667;28;20366;-73
2021/04/12 02:14:09;;;;;;;5.90;5.40;;;3.50;1.00;;;;;;4968041;28;20637;-72
2021/04/12 02:17:13;;;;;;;6.60;6.10;;;3.50;1.00;;;;;;4970522;28;20061;-73
2021/04/12 02:20:00;;;;;;;6.25;5.65;;;3.60;1.00;;;;;;4962092;28;20024;-72
2021/04/12 02:22:50;;;;;;;5.93;5.43;;;3.60;1.00;;;;;;4972446;28;20109;-73
2021/04/12 02:25:59;;;;;;;5.53;5.03;;;3.50;1.00;;;;;;4971838;28;20109;-73
2021/04/12 02:28:50;;;;;;;6.70;6.07;;;3.50;1.00;;;;;;4970565;28;20042;-73
2021/04/12 02:31:52;;;;;;;7.85;5.70;;;3.50;1.00;;;;;;4967406;28;20113;-73
2021/04/12 02:34:30;;;;;;;6.25;5.75;;;3.40;1.00;;;;;;4970415;28;20106;-73
2021/04/12 02:37:04;;;;;;;6.72;6.07;;;3.30;1.00;;;;;;4973108;28;20398;-73
2021/04/12 02:39:48;;;;;;;6.93;6.32;;;3.40;1.00;;;;;;4973091;28;20027;-73
2021/04/12 02:42:33;;;;;;;7.20;6.50;;;3.50;1.00;;;;;;4971480;28;20031;-71
2021/04/12 02:45:15;;;;;;;6.93;6.22;;;3.40;1.00;;;;;;4967343;28;20050;-73
2021/04/12 02:48:15;;;;;;;6.82;6.22;;;3.40;1.00;;;;;;4971405;28;20031;-73
2021/04/12 02:50:53;;;;;;;7.20;6.50;;;3.40;1.00;;;;;;4969386;28;20557;-74
2021/04/12 02:53:49;;;;;;;8.05;7.32;;;3.50;1.00;;;;;;4978766;28;20042;-73
2021/04/12 02:56:36;;;;;;;6.90;6.30;;;3.60;1.00;;;;;;4970410;28;20023;-74
2021/04/12 02:59:24;;;;;;;7.88;7.07;;;3.60;1.00;;;;;;4971619;28;20031;-72
2021/04/12 03:02:28;;;;;;;7.55;6.82;;;3.60;1.00;;;;;;4964756;28;20113;-72
2021/04/12 03:04:57;;;;;;;7.68;6.90;;;3.60;1.00;;;;;;4969329;28;20043;-73
2021/04/12 03:07:59;;;;;;;8.20;6.75;;;3.50;1.00;;;;;;4972595;28;20118;-72
2021/04/12 03:10:29;;;;;;;7.32;6.53;;;3.50;1.00;;;;;;4985547;28;20027;-72
2021/04/12 03:13:14;;;;;;;6.38;5.78;;;3.50;1.00;;;;;;4968418;28;20057;-73
2021/04/12 03:15:46;;;;;;;6.90;6.20;;;3.50;1.00;;;;;;4963771;28;20063;-72
2021/04/12 03:18:25;;;;;;;6.57;5.97;;;3.50;1.00;;;;;;4980740;28;20025;-73
2021/04/12 03:21:32;;;;;;;7.15;6.45;;;3.40;1.00;;;;;;4983240;28;20029;-72
2021/04/12 03:24:19;;;;;;;5.85;5.35;;;3.50;1.00;;;;;;4984945;28;20033;-73
2021/04/12 03:27:42;;;;;;;6.22;5.68;;;3.40;1.00;;;;;;4975079;28;20027;-73
2021/04/12 03:30:32;;;;;;;7.10;5.47;;;3.50;1.00;;;;;;4948793;28;20119;-74
2021/04/12 03:33:08;;;;;;;8.48;6.38;;;3.40;1.00;;;;;;4960249;28;20062;-73
2021/04/12 03:35:42;;;;;;;7.18;6.47;;;3.40;1.00;;;;;;4968287;28;20051;-72
2021/04/12 03:38:23;;;;;;;7.05;5.70;;;3.40;1.00;;;;;;4972115;28;20054;-72
2021/04/12 03:41:09;;;;;;;;;;;3.40;1.00;;;;;;4970442;28;20037;-74
2021/04/12 03:44:11;;;;;;;7.13;5.68;;;3.40;1.00;;;;;;4966559;28;19918;-73
2021/04/12 03:46:46;;;;;;;6.57;5.97;;;3.40;1.00;;;;;;4990038;28;20030;-73
2021/04/12 03:49:53;;;;;;;6.10;5.53;;;3.50;1.00;;;;;;4974859;28;20031;-73
2021/04/12 03:52:58;;;;;;;9.07;6.05;;;3.50;1.00;;;;;;4966234;28;20042;-73
2021/04/12 03:55:48;;;;;;;5.28;4.78;;;3.50;1.00;;;;;;4963374;28;20070;-74
2021/04/12 03:58:53;;;;;;;6.95;6.25;;;3.40;1.00;;;;;;4988543;28;20035;-73
2021/04/12 04:01:49;;;;;;;6.38;5.78;;;3.50;1.00;;;;;;4976678;28;20027;-73
2021/04/12 04:04:27;;;;;;;6.45;5.85;;;3.50;1.00;;;;;;4989011;28;20022;-73
2021/04/12 04:07:07;;;;;;;7.80;7.00;;;3.50;1.00;;;;;;4982083;28;20035;-73
2021/04/12 04:09:48;;;;;;;8.90;6.90;;;3.60;1.00;;;;;;4989468;28;20038;-73
2021/04/12 04:12:13;;;;;;;7.45;6.75;;;3.50;1.00;;;;;;5002900;28;20030;-73
2021/04/12 04:15:14;;;;;;;7.90;7.15;;;3.60;1.00;;;;;;4985295;28;20038;-73
2021/04/12 04:18:07;;;;;;;8.55;7.50;;;3.60;1.00;;;;;;4990340;28;20050;-73
2021/04/12 04:20:51;;;;;;;10.98;8.82;;;3.50;1.00;;;;;;4983503;28;20033;-72
2021/04/12 04:23:35;;;;;;;8.93;8.07;;;3.50;1.00;;;;;;4985297;28;20091;-73
2021/04/12 04:26:42;;;;;;;9.23;7.72;;;3.40;1.00;;;;;;4985699;28;20045;-72
2021/04/12 04:29:26;;;;;;;11.35;9.43;;;3.50;1.00;;;;;;4974720;28;20022;-73
2021/04/12 04:32:28;;;;;;;10.30;8.38;;;3.50;1.00;;;;;;4985769;28;20023;-73
2021/04/12 04:35:08;;;;;;;9.65;8.48;;;3.40;1.00;;;;;;4968217;28;20023;-73
2021/04/12 04:37:37;;;;;;;8.70;7.85;;;3.40;1.00;;;;;;4968892;28;20026;-73
2021/04/12 04:40:24;;;;;;;10.00;9.05;;;3.40;1.00;;;;;;4976089;28;20033;-73
2021/04/12 04:43:01;;;;;;;9.13;8.23;;;3.50;1.00;;;;;;4972628;28;20034;-73
2021/04/12 04:45:56;;;;;;;8.85;7.38;;;3.40;1.00;;;;;;4978421;28;20513;-73
2021/04/12 04:48:34;;;;;;;9.13;7.35;;;3.30;1.00;;;;;;4973037;28;20027;-72
2021/04/12 04:51:29;;;;;;;9.35;8.45;;;3.30;1.00;;;;;;4975686;28;20054;-72
2021/04/12 04:54:26;;;;;;;9.20;8.30;;;3.30;1.00;;;;;;4975726;28;20034;-72
2021/04/12 04:57:27;;;;;;;8.15;7.35;;;3.30;1.00;;;;;;4971350;28;20030;-73
2021/04/12 05:00:25;;;;;;;6.63;6.03;;;3.10;1.00;;;;;;4982124;28;20034;-73
2021/04/12 05:03:26;;;;;;;7.50;6.85;;;3.00;1.00;;;;;;4968034;28;20434;-74
2021/04/12 05:06:14;;;;;;;6.80;6.20;;;3.00;1.00;;;;;;4974866;28;20402;-73
2021/04/12 05:09:01;;;;;;;7.70;7.00;;;2.90;1.00;;;;;;4970925;28;20031;-72
2021/04/12 05:11:44;;;;;;;7.95;7.20;;;2.90;1.00;;;;;;4972486;28;20062;-74
2021/04/12 05:15:03;;;;;;;8.55;7.75;;;2.90;1.00;;;;;;4972073;28;20474;-73
2021/04/12 05:18:08;;;;;;;7.20;6.50;;;3.00;1.00;;;;;;4995532;28;20030;-73
2021/04/12 05:20:43;;;;;;;8.30;7.50;;;2.80;1.00;;;;;;4975124;28;20505;-73
2021/04/12 05:23:36;;;;;;;9.25;8.23;;;2.90;1.00;;;;;;4989926;28;20035;-74
2021/04/12 05:26:17;;;;;;;9.93;8.93;;;2.90;1.00;;;;;;4970699;28;20022;-73
2021/04/12 05:29:07;;;;;;;8.95;8.15;;;2.90;1.00;;;;;;4969953;28;20442;-73
2021/04/12 05:32:11;;;;;;;9.55;8.55;;;3.00;1.00;;;;;;4970140;28;20026;-74
2021/04/12 05:34:58;;;;;;;9.55;8.60;;;3.00;1.00;;;;;;4967560;28;20041;-73
2021/04/12 05:37:45;;;;;;;10.55;8.95;;;2.90;1.00;;;;;;4976313;28;20112;-72
2021/04/12 05:40:14;;;;;;;15.23;10.07;;;2.90;1.00;;;;;;4966275;28;20043;-73
2021/04/12 05:43:00;;;;;;;10.88;9.88;;;2.90;1.00;;;;;;4968179;28;20398;-73
2021/04/12 05:45:38;;;;;;;10.98;9.88;;;3.00;1.00;;;;;;4973721;28;20106;-72
2021/04/12 05:48:34;;;;;;;11.07;9.93;;;2.90;1.00;;;;;;4987205;28;20053;-74
2021/04/12 05:51:08;;;;;;;12.82;11.27;;;2.90;1.00;;;;;;4970977;28;20050;-74
2021/04/12 05:53:55;;;;;;;13.20;11.90;;;2.80;1.00;;;;;;4968495;28;20022;-74
2021/04/12 05:56:26;;;;;;;11.85;10.65;;;3.00;1.00;;;;;;4975873;28;20041;-73
2021/04/12 05:59:24;;;;;;;12.10;10.90;;;3.10;1.00;;;;;;4972850;28;20497;-73
2021/04/12 06:02:01;;;;;;;13.23;12.00;;;3.10;1.00;;;;;;4961441;28;20467;-74
2021/04/12 06:05:02;;;;;;;12.95;11.73;;;3.00;1.00;;;;;;4975899;28;20106;-73
2021/04/12 06:07:55;;;;;;;12.80;11.60;;;3.10;1.00;;;;;;4965118;28;20034;-73
2021/04/12 06:10:44;;;;;;;13.02;11.68;;;3.10;1.00;;;;;;4976819;28;20522;-73
2021/04/12 06:13:39;;;;;;;11.55;10.40;;;3.30;1.00;;;;;;4977610;28;20062;-75
2021/04/12 06:16:32;;;;;;;11.63;10.60;;;3.40;1.00;;;;;;4985158;28;20023;-74
2021/04/12 06:19:25;;;;;;;11.10;10.00;;;3.40;1.00;;;;;;4985084;28;20025;-74
2021/04/12 06:22:03;;;;;;;11.15;10.05;;;3.40;1.00;;;;;;4997797;28;20023;-72
2021/04/12 06:25:07;;;;;;;12.30;11.07;;;3.50;1.00;;;;;;4978490;28;20045;-74
2021/04/12 06:27:50;;;;;;;10.90;9.80;;;3.60;1.00;;;;;;4976309;28;20031;-72
2021/04/12 06:30:54;;;;;;;13.38;10.13;;;3.70;1.00;;;;;;4973558;28;20031;-73
2021/04/12 06:33:34;;;;;;;11.00;9.85;;;3.80;1.00;;;;;;4985530;28;20158;-73
2021/04/12 06:36:25;;;;;;;10.75;9.65;;;3.90;1.00;;;;;;4983028;28;20049;-73
2021/04/12 06:39:09;;;;;;;11.15;10.02;;;4.00;1.00;;;;;;4982987;28;20034;-73
2021/04/12 06:42:05;;;;;;;11.02;9.93;;;3.90;1.00;;;;;;4982517;28;20062;-73
2021/04/12 06:45:03;;;;;;;11.52;10.43;;;4.00;1.00;;;;;;4982816;28;20134;-73
2021/04/12 06:47:41;;;;;;;10.82;8.88;;;4.10;1.00;;;;;;4986372;28;20545;-73
2021/04/12 06:50:44;;;;;;;10.23;9.23;;;4.10;1.00;;;;;;4983368;28;20090;-74
2021/04/12 06:54:01;;;;;;;9.52;8.63;;;4.00;1.00;;;;;;4973795;28;20054;-73
2021/04/12 06:57:10;;;;;;;10.40;8.27;;;4.20;1.00;;;;;;4971182;28;20031;-73
2021/04/12 07:00:13;;;;;;;11.52;8.68;;;4.00;1.00;;;;;;4986038;28;20027;-74
2021/04/12 07:03:03;;;;;;;12.05;9.10;;;4.00;1.00;;;;;;4968003;28;20039;-73
2021/04/12 07:05:45;;;;;;;11.23;9.67;;;4.10;1.00;;;;;;4970102;28;20042;-74
2021/04/12 07:08:22;;;;;;;12.45;9.18;;;4.10;1.00;;;;;;4971430;28;20275;-72
2021/04/12 07:11:21;;;;;;;9.63;8.73;;;4.20;1.00;;;;;;4972088;28;20027;-73
2021/04/12 07:13:56;;;;;;;9.32;8.20;;;4.20;1.00;;;;;;4990218;28;20035;-75
2021/04/12 07:16:30;;;;;;;10.77;9.43;;;4.10;1.00;;;;;;4975386;28;20027;-76
2021/04/12 07:19:23;;;;;;;9.75;8.75;;;4.00;1.00;;;;;;4967798;28;20027;-76
2021/04/12 07:22:10;;;;;;;12.77;9.88;;;4.10;1.00;;;;;;4973143;28;20053;-76
2021/04/12 07:24:55;;;;;;;10.60;9.35;;;4.10;1.00;;;;;;4967821;28;20050;-77
2021/04/12 07:27:42;;;;;;;12.35;10.40;;;4.10;1.00;;;;;;4975270;28;20090;-76
2021/04/12 07:30:36;;;;;;;11.82;10.68;;;4.10;1.00;;;;;;4969508;28;20034;-76
2021/04/12 07:33:14;;;;;;;12.43;11.25;;;4.10;1.00;;;;;;4994038;28;20050;-75
2021/04/12 07:35:52;;;;;;;12.98;10.32;;;4.10;1.00;;;;;;4977035;28;20026;-75
2021/04/12 07:38:26;;;;;;;12.43;9.75;;;4.20;1.00;;;;;;4978102;28;20027;-77
2021/04/12 07:41:24;;;;;;;13.60;12.30;;;4.10;1.00;;;;;;4980949;28;20031;-76
2021/04/12 07:44:36;;;;;;;12.25;10.95;;;4.20;1.00;;;;;;4983346;28;20569;-75
2021/04/12 07:47:30;;;;;;;12.27;10.98;;;4.20;1.00;;;;;;4978144;28;20810;-75
2021/04/12 07:50:13;;;;;;;11.50;10.30;;;4.30;1.00;;;;;;4978104;28;20023;-77
2021/04/12 07:52:48;;;;;;;14.77;11.85;;;4.20;1.00;;;;;;4979561;28;20023;-75
2021/04/12 07:55:28;;;;;;;12.23;11.00;;;4.50;1.00;;;;;;4993206;28;20030;-76
2021/04/12 07:58:22;;;;;;;22.60;14.13;;;4.50;1.00;;;;;;4996386;28;20031;-76
2021/04/12 08:01:20;;;;;;;12.15;10.95;;;4.60;1.00;;;;;;4977478;28;20023;-75
2021/04/12 08:04:00;;;;;;;13.95;11.77;;;4.80;1.00;;;;;;4976978;28;20027;-76
2021/04/12 08:06:59;;;;;;;12.32;10.15;;;4.80;1.00;;;;;;4974388;28;20031;-76
2021/04/12 08:09:43;;;;;;;14.13;12.57;;;4.80;1.00;;;;;;4977956;28;20121;-76
2021/04/12 08:12:42;;;;;;;14.38;12.10;;;4.80;99.90;;;;;;4979202;28;20026;-77
2021/04/12 08:15:45;;;;;;;12.93;11.63;;;4.80;99.90;;;;;;4980613;28;20034;-76
2021/04/12 08:18:43;;;;;;;12.85;10.68;;;4.80;99.90;;;;;;4978998;28;20019;-76
2021/04/12 08:21:36;;;;;;;16.10;13.25;;;4.80;99.90;;;;;;4974821;28;20034;-75
2021/04/12 08:24:46;;;;;;;15.25;12.20;;;4.90;99.90;;;;;;4980125;28;20038;-77
2021/04/12 08:27:35;;;;;;;18.67;12.88;;;5.20;99.90;;;;;;4978387;28;20033;-76
2021/04/12 08:30:10;;;;;;;13.98;12.32;;;5.40;99.90;;;;;;4977627;28;20021;-77
2021/04/12 08:32:38;;;;;;;12.23;11.02;;;5.40;99.90;;;;;;4976074;28;20455;-78
2021/04/12 08:35:23;;;;;;;15.48;12.80;;;5.30;99.90;;;;;;4977294;28;20101;-77
2021/04/12 08:38:19;;;;;;;12.90;11.57;;;5.20;99.90;;;;;;4968925;28;20047;-77
2021/04/12 08:41:19;;;;;;;13.38;11.18;;;5.10;99.90;;;;;;4972019;28;20019;-76
2021/04/12 08:43:50;;;;;;;13.27;11.43;;;5.10;99.90;;;;;;4974085;28;20054;-75
2021/04/12 08:46:31;;;;;;;12.75;10.75;;;5.30;99.90;;;;;;4970574;28;20505;-76
2021/04/12 08:49:21;;;;;;;14.15;10.57;;;5.10;99.90;;;;;;4978057;28;20019;-75
2021/04/12 08:52:24;;;;;;;12.87;10.87;;;5.20;99.90;;;;;;4991073;28;20030;-76
2021/04/12 08:54:56;;;;;;;11.63;10.43;;;5.30;99.90;;;;;;4979660;28;20031;-75
2021/04/12 08:57:49;;;;;;;12.15;10.60;;;5.30;99.90;;;;;;4978014;28;20015;-76
2021/04/12 09:00:52;;;;;;;13.07;10.48;;;5.30;99.90;;;;;;4974138;28;20117;-78
2021/04/12 09:03:57;;;;;;;10.60;9.48;;;5.40;99.90;;;;;;4981238;28;20114;-78
2021/04/12 09:06:57;;;;;;;11.32;10.13;;;5.60;99.90;;;;;;4982710;28;20054;-78
2021/04/12 09:09:32;;;;;;;11.65;10.57;;;5.50;99.90;;;;;;4990372;28;20050;-77
2021/04/12 09:12:39;;;;;;;10.07;8.73;;;5.70;99.90;;;;;;4983690;28;20046;-79
2021/04/12 09:15:28;;;;;;;11.82;10.23;;;5.80;99.90;;;;;;4989930;28;20022;-80
2021/04/12 09:18:32;;;;;;;13.45;9.48;;;5.60;99.90;;;;;;4980389;28;20031;-77
2021/04/12 09:21:11;;;;;;;12.73;9.18;;;5.40;99.90;;;;;;4976730;28;20110;-78
2021/04/12 09:23:50;;;;;;;11.15;10.05;;;5.50;99.90;;;;;;4982123;28;20023;-81
2021/04/12 09:26:44;;;;;;;11.30;10.00;;;5.70;99.90;;;;;;4985391;28;20023;-80
2021/04/12 09:29:31;;;;;;;13.75;9.32;;;5.70;99.90;;;;;;4980338;28;20528;-80
2021/04/12 09:32:18;;;;;;;13.23;9.90;;;5.80;99.90;;;;;;4981698;28;20042;-79
2021/04/12 09:35:17;;;;;;;10.40;9.25;;;6.10;99.90;;;;;;4980936;28;20023;-77
2021/04/12 09:38:01;;;;;;;7.22;6.53;;;6.20;99.90;;;;;;4977861;28;20034;-78
2021/04/12 09:40:26;;;;;;;9.85;7.88;;;6.20;99.90;;;;;;4980877;28;20080;-79
2021/04/12 09:43:12;;;;;;;8.15;7.45;;;6.10;91.00;;;;;;4981997;28;20208;-80
2021/04/12 09:46:00;;;;;;;8.77;6.88;;;6.20;66.90;;;;;;4983099;28;20029;-78
2021/04/12 09:48:32;;;;;;;8.82;6.78;;;6.30;26.50;;;;;;4984004;28;20071;-76
2021/04/12 09:51:11;;;;;;;13.98;9.80;;;6.30;43.40;;;;;;4981339;28;20042;-76
2021/04/12 09:53:45;;;;;;;7.82;7.13;;;6.60;1.00;;;;;;4980395;28;20102;-76
2021/04/12 09:56:42;;;;;;;14.02;8.40;;;6.50;1.00;;;;;;4981895;28;20082;-79
2021/04/12 09:59:13;;;;;;;7.75;6.45;;;6.30;1.00;;;;;;4976927;28;20022;-78
2021/04/12 10:02:03;;;;;;;6.82;5.97;;;6.30;1.00;;;;;;4976915;28;20019;-77
2021/04/12 10:04:52;;;;;;;6.80;6.13;;;6.50;99.90;;;;;;4981246;28;20034;-78
2021/04/12 10:07:52;;;;;;;7.32;5.10;;;6.60;99.90;;;;;;4984380;28;20034;-79
2021/04/12 10:10:20;;;;;;;11.90;6.10;;;6.40;99.90;;;;;;4986941;28;20029;-79
2021/04/12 10:13:14;;;;;;;5.07;4.57;;;6.40;1.00;;;;;;4979956;28;20035;-78
2021/04/12 10:15:49;;;;;;;4.43;3.95;;;6.60;99.90;;;;;;4995509;28;20108;-79
2021/04/12 10:18:41;;;;;;;5.22;4.68;;;6.60;1.00;;;;;;4981129;28;20023;-79
2021/04/12 10:21:45;;;;;;;3.55;3.25;;;6.60;1.00;;;;;;4980667;28;20019;-77
2021/04/12 10:33:23;;;;;;;4.45;3.90;;;7.10;1.00;;;;;;5520437;23;20053;-77
2021/04/12 10:36:21;;;;;;;4.18;3.60;;;7.10;1.00;;;;;;5018429;28;20053;-78
2021/04/12 10:49:16;;;;;;;4.72;3.90;;;7.40;1.00;;;;;;4985489;28;19917;-78
2021/04/12 10:52:14;;;;;;;5.38;3.60;;;7.50;1.00;;;;;;5013690;28;20018;-77
2021/04/12 10:55:15;;;;;;;6.15;3.63;;;7.40;99.90;;;;;;5013510;28;20118;-77
2021/04/12 10:58:04;;;;;;;5.05;3.53;;;7.40;99.90;;;;;;5013735;28;20082;-77
2021/04/12 11:00:43;;;;;;;5.68;4.32;;;7.50;99.90;;;;;;5002407;28;20030;-78
2021/04/12 11:03:17;;;;;;;5.53;3.80;;;7.80;95.00;;;;;;5014370;28;20026;-77
2021/04/12 11:05:51;;;;;;;6.72;3.78;;;7.80;1.00;;;;;;5006582;28;20035;-77
2021/04/12 11:08:35;;;;;;;8.77;3.50;;;8.00;1.00;;;;;;5013625;28;20029;-77
2021/04/12 11:11:29;;;;;;;4.95;2.75;;;7.70;1.00;;;;;;5018438;28;20125;-78
2021/04/12 11:14:24;;;;;;;3.80;3.50;;;7.70;1.00;;;;;;5009556;28;20010;-77
2021/04/12 11:16:56;;;;;;;3.00;2.00;;;7.90;99.90;;;;;;4998454;28;20022;-77
2021/04/12 11:19:47;;;;;;;2.10;2.00;;;7.80;99.90;;;;;;5000471;28;20022;-78
2021/04/12 11:22:20;;;;;;;2.50;2.22;;;7.60;99.90;;;;;;5003736;28;20061;-76
2021/04/12 11:25:16;;;;;;;3.95;2.85;;;7.60;1.00;;;;;;5016703;28;20041;-77
2021/04/12 11:28:08;;;;;;;3.28;2.60;;;7.60;99.90;;;;;;5010306;28;20019;-77
2021/04/12 11:30:55;;;;;;;5.82;3.00;;;7.60;99.90;;;;;;5000426;28;20032;-77
2021/04/12 11:34:02;;;;;;;3.40;2.53;;;7.80;99.90;;;;;;4983906;28;20045;-78
2021/04/12 11:36:27;;;;;;;3.78;2.65;;;7.40;99.90;;;;;;5007443;28;20038;-76
2021/04/12 11:39:06;;;;;;;4.03;2.80;;;7.10;99.90;;;;;;5014577;28;20028;-78
2021/04/12 11:41:53;;;;;;;2.58;1.98;;;7.50;99.90;;;;;;5004530;28;20030;-79
2021/04/12 11:44:39;;;;;;;5.15;2.50;;;7.70;99.90;;;;;;5009803;28;20033;-78
2021/04/12 11:47:14;;;;;;;2.60;2.30;;;7.80;19.50;;;;;;4992077;28;20038;-77
2021/04/12 11:50:06;;;;;;;5.45;2.47;;;7.90;99.90;;;;;;5002091;28;20358;-78
2021/04/12 11:53:08;;;;;;;4.47;2.25;;;8.50;99.90;;;;;;5005787;28;20022;-79
2021/04/12 11:55:43;;;;;;;3.50;2.22;;;8.80;99.90;;;;;;4991280;28;20038;-78
2021/04/12 11:58:22;;;;;;;5.70;2.65;;;9.30;99.90;;;;;;5009616;28;20023;-78
2021/04/12 12:01:16;;;;;;;3.20;2.05;;;9.70;1.00;;;;;;5019011;28;20466;-78
2021/04/12 12:04:11;;;;;;;2.45;2.20;;;8.80;11.90;;;;;;5007255;28;20041;-77
2021/04/12 12:07:02;;;;;;;6.82;2.28;;;8.60;80.00;;;;;;5001279;28;20100;-80
2021/04/12 12:10:05;;;;;;;3.08;2.08;;;8.60;46.30;;;;;;5012615;28;20492;-79
2021/04/12 12:12:42;;;;;;;7.50;2.28;;;9.10;1.00;;;;;;5018391;28;20069;-78
2021/04/12 12:15:29;;;;;;;1.77;1.67;;;8.80;1.00;;;;;;4995535;28;20116;-77
2021/04/12 12:18:19;;;;;;;3.50;1.67;;;8.20;1.00;;;;;;4999234;28;20033;-76
2021/04/12 12:21:04;;;;;;;3.10;2.00;;;8.40;1.00;;;;;;4999948;28;20022;-77
2021/04/12 12:24:12;;;;;;;1.88;1.77;;;8.20;1.00;;;;;;5007426;28;20258;-76
2021/04/12 12:26:45;;;;;;;3.45;1.85;;;8.40;71.30;;;;;;4978604;28;20028;-75
2021/04/12 12:29:30;;;;;;;4.35;1.60;;;8.20;1.00;;;;;;5001814;28;20038;-76
2021/04/12 12:32:19;;;;;;;1.50;1.38;;;8.00;1.00;;;;;;5005277;28;20030;-76
2021/04/12 12:35:01;;;;;;;3.38;2.10;;;8.00;1.00;;;;;;5019534;28;20098;-76
2021/04/12 12:37:45;;;;;;;2.88;1.60;;;8.10;1.00;;;;;;5015184;28;20030;-76
2021/04/12 12:40:22;;;;;;;2.17;1.75;;;8.50;1.00;;;;;;5023150;28;20033;-76
2021/04/12 12:42:52;;;;;;;1.98;1.73;;;9.30;1.00;;;;;;5014529;28;20026;-76
2021/04/12 12:45:30;;;;;;;3.92;1.80;;;9.50;1.00;;;;;;5007188;28;20018;-77
2021/04/12 12:48:00;;;;;;;1.83;1.45;;;10.20;99.90;;;;;;5010599;28;20030;-77
2021/04/12 12:50:34;;;;;;;4.10;1.90;;;9.70;99.90;;;;;;5012587;28;20040;-77
2021/04/12 12:53:28;;;;;;;3.03;2.22;;;9.20;99.90;;;;;;5012278;28;20056;-76
2021/04/12 12:56:02;;;;;;;2.90;1.50;;;9.10;99.90;;;;;;5003316;28;20034;-76
2021/04/12 12:58:30;;;;;;;3.47;1.50;;;8.90;99.90;;;;;;4991780;28;20052;-76
2021/04/12 13:00:59;;;;;;;2.67;1.70;;;8.40;99.90;;;;;;4986061;28;20425;-76
2021/04/12 13:03:33;;;;;;;2.25;1.70;;;8.60;99.90;;;;;;4991337;28;20407;-77
2021/04/12 13:06:16;;;;;;;4.38;2.25;;;8.40;99.90;;;;;;4997352;28;20058;-77
2021/04/12 13:08:56;;;;;;;2.45;2.28;;;8.30;99.90;;;;;;5012081;28;20036;-77
2021/04/12 13:11:40;;;;;;;5.15;2.00;;;8.50;99.90;;;;;;5004994;28;20026;-77
2021/04/12 13:14:30;;;;;;;2.60;1.30;;;8.50;99.90;;;;;;5001028;28;20378;-77
2021/04/12 13:16:58;;;;;;;3.50;1.70;;;8.70;99.90;;;;;;5005657;28;20357;-75
2021/04/12 13:19:25;;;;;;;2.65;1.85;;;9.10;99.90;;;;;;5006298;28;20054;-77
2021/04/12 13:21:59;;;;;;;2.47;1.90;;;9.40;99.90;;;;;;5004801;28;20026;-78
2021/04/12 13:24:35;;;;;;;2.60;1.40;;;10.10;99.90;;;;;;5005508;28;20478;-77
2021/04/12 13:27:02;;;;;;;2.25;1.50;;;9.70;99.90;;;;;;5003341;28;20054;-78
2021/04/12 13:29:58;;;;;;;2.20;1.55;;;9.30;99.90;;;;;;5000582;28;20026;-78
2021/04/12 13:32:35;;;;;;;1.73;1.35;;;9.20;99.90;;;;;;5011744;28;20085;-77
2021/04/12 13:35:14;;;;;;;2.35;1.83;;;9.00;99.90;;;;;;5012554;28;20045;-77
2021/04/12 13:37:48;;;;;;;2.72;1.73;;;9.00;99.90;;;;;;4995211;28;20035;-77
2021/04/12 13:40:27;;;;;;;3.28;1.73;;;8.70;99.90;;;;;;5015380;28;20477;-76
2021/04/12 13:42:57;;;;;;;3.83;1.88;;;8.60;99.90;;;;;;4998382;28;20390;-77
2021/04/12 13:45:36;;;;;;;1.73;1.40;;;8.80;99.90;;;;;;5004894;28;20029;-76
2021/04/12 13:48:23;;;;;;;1.63;1.40;;;8.80;99.90;;;;;;5009039;28;20634;-75
2021/04/12 13:51:00;;;;;;;1.88;1.77;;;8.70;99.90;;;;;;5008670;28;20517;-75
2021/04/12 13:53:53;;;;;;;1.58;1.30;;;8.70;99.90;;;;;;5010661;28;20034;-76
2021/04/12 13:56:47;;;;;;;2.88;1.60;;;8.50;99.90;;;;;;5014795;28;20481;-77
2021/04/12 13:59:25;;;;;;;1.80;1.70;;;8.50;99.90;;;;;;4994539;28;20528;-77
2021/04/12 14:02:04;;;;;;;3.38;1.80;;;8.30;99.90;;;;;;5010146;28;20026;-76
2021/04/12 14:04:54;;;;;;;3.63;2.00;;;8.20;99.90;;;;;;5000271;28;20068;-77
2021/04/12 14:07:44;;;;;;;4.28;1.80;;;8.20;99.90;;;;;;4996831;28;20045;-76
2021/04/12 14:10:24;;;;;;;3.03;2.05;;;8.10;99.90;;;;;;4994725;28;20049;-77
2021/04/12 14:12:58;;;;;;;2.47;2.13;;;7.90;99.90;;;;;;5004482;28;20050;-77
2021/04/12 14:15:32;;;;;;;4.32;1.83;;;7.80;99.90;;;;;;5016835;28;20602;-76
2021/04/12 14:18:08;;;;;;;3.97;1.90;;;7.80;99.90;;;;;;5006065;28;20386;-78
2021/04/12 14:20:46;;;;;;;4.25;3.17;;;7.70;99.90;;;;;;4998959;28;20034;-78
2021/04/12 14:23:31;;;;;;;6.10;2.63;;;7.60;1.00;;;;;;4991927;28;20066;-77
2021/04/12 14:26:11;;;;;;;2.05;1.90;;;7.70;1.00;;;;;;5010074;28;20077;-78
2021/04/12 14:28:45;;;;;;;3.05;2.00;;;7.40;40.10;;;;;;5014816;28;20030;-78
2021/04/12 14:31:25;;;;;;;1.42;1.30;;;7.40;99.90;;;;;;5012609;28;20034;-77
2021/04/12 14:34:00;;;;;;;3.53;1.80;;;7.80;40.00;;;;;;5010695;28;20034;-77
2021/04/12 14:36:29;;;;;;;2.10;1.77;;;8.10;1.00;;;;;;5015513;28;20033;-75
2021/04/12 14:39:13;;;;;;;2.22;1.75;;;8.20;1.00;;;;;;5011520;28;20030;-77
2021/04/12 14:41:47;;;;;;;3.67;2.03;;;8.30;1.00;;;;;;5001198;28;20030;-76
2021/04/12 14:44:24;;;;;;;5.10;1.52;;;8.60;1.00;;;;;;5003194;28;20464;-76
2021/04/12 14:46:52;;;;;;;2.70;1.52;;;8.80;99.90;;;;;;5003870;28;20081;-77
2021/04/12 14:49:34;;;;;;;1.88;1.50;;;9.00;99.90;;;;;;5002971;28;20050;-75
2021/04/12 14:52:32;;;;;;;3.13;1.55;;;9.30;99.90;;;;;;5005714;28;20034;-76
2021/04/12 14:55:27;;;;;;;2.17;1.40;;;9.40;99.90;;;;;;4997378;28;20682;-77
2021/04/12 14:58:04;;;;;;;1.58;1.33;;;9.20;99.90;;;;;;5003457;28;20513;-76
2021/04/12 15:00:36;;;;;;;2.08;1.30;;;9.00;99.90;;;;;;5001500;28;20037;-75